Salacak — 3FBM4 — position and weather

sailwx.info

Track history (hours):
 
Tides and Currents Weather Stations Pressure Air Temp Water Temp Dewpoint Dewpoint Depression Visibility Wind Speed Wind Dir Waves Ship Positions

Salacak

Last reported at 2016-May-29 03:34 UTC. Time now 2016-May-29 03:53 UTC.
Position N 44°44' E 037°47'.

Length 126 m; draft 8.8 m.

Type: Cargo ship. MMSI: 373532000.

Date/timePositionNaut miles runAvg speedWind from/ knotsBaromVisibWave heightAir tempDewpointWater temp
2016-May-29 03:34N 44°44' E 037°47'0 0.0
2016-May-29 02:33N 44°44' E 037°47'0 0.0
2016-May-29 01:33N 44°44' E 037°47'0 0.0
2016-May-29 00:33N 44°44' E 037°47'0 0.0
2016-May-28 23:33N 44°44' E 037°47'0 0.0
2016-May-28 22:33N 44°44' E 037°47'0 0.0
2016-May-28 21:27N 44°44' E 037°47'0 0.0
2016-May-28 20:30N 44°44' E 037°47'0 0.0
2016-May-28 19:33N 44°44' E 037°47'0 0.0
2016-May-28 18:30N 44°44' E 037°47'0 0.0
2016-May-28 17:33N 44°44' E 037°47'0 0.0
2016-May-28 16:33N 44°44' E 037°47'0 0.0
2016-May-28 15:27N 44°44' E 037°47'0 0.0
2016-May-28 14:33N 44°44' E 037°47'0 0.0
2016-May-28 13:33N 44°44' E 037°47'0 0.0
2016-May-28 12:33N 44°44' E 037°47'0 0.0
2016-May-28 11:33N 44°44' E 037°47'0 0.0
2016-May-28 10:33N 44°44' E 037°47'0 0.0
2016-May-28 09:33N 44°44' E 037°47'0 0.0
2016-May-28 08:30N 44°44' E 037°47'0 0.0
2016-May-28 07:33N 44°44' E 037°47'0 0.0
2016-May-28 06:33N 44°44' E 037°47'0 0.0
2016-May-28 05:33N 44°44' E 037°47'0 0.0
2016-May-28 04:33N 44°44' E 037°47'0 0.0
2016-May-28 03:33N 44°44' E 037°47'0 0.0
2016-May-28 02:33N 44°44' E 037°47'0 0.0
2016-May-28 01:33N 44°44' E 037°47'0 0.0
2016-May-28 00:33N 44°44' E 037°47'0 0.0
2016-May-27 23:33N 44°44' E 037°47'0 0.0
2016-May-27 22:30N 44°44' E 037°47'0 0.0
2016-May-27 21:33N 44°44' E 037°47'0 0.0
2016-May-27 20:33N 44°44' E 037°47'0 0.0
2016-May-27 19:33N 44°44' E 037°47'0 0.0
2016-May-27 18:33N 44°44' E 037°47'0 0.0
2016-May-27 17:32N 44°44' E 037°47'0 0.0
2016-May-27 16:32N 44°44' E 037°47'0 0.0
2016-May-27 15:32N 44°44' E 037°47'0 0.0
2016-May-27 14:32N 44°44' E 037°47'0 0.0
2016-May-27 13:32N 44°44' E 037°47'0 0.0
2016-May-27 12:32N 44°44' E 037°47'0 0.0
2016-May-27 11:32N 44°44' E 037°47'0 0.0
2016-May-27 10:32N 44°44' E 037°47'0 0.0
2016-May-27 09:32N 44°44' E 037°47'0 0.0
2016-May-27 08:32N 44°44' E 037°47'0 0.0
2016-May-27 07:32N 44°44' E 037°47'0 0.0
2016-May-27 06:32N 44°44' E 037°47'0 0.0
2016-May-27 05:32N 44°44' E 037°47'0 0.0
2016-May-27 04:32N 44°44' E 037°47'0 0.0
2016-May-27 03:32N 44°44' E 037°47'0 0.0
2016-May-27 02:32N 44°44' E 037°47'0 0.0
2016-May-27 01:32N 44°44' E 037°47'0 0.0
2016-May-27 00:32N 44°44' E 037°47'0 0.0
2016-May-26 23:32N 44°44' E 037°47'0 0.0
2016-May-26 22:32N 44°44' E 037°47'0 0.0
2016-May-26 21:32N 44°44' E 037°47'0 0.0
2016-May-26 20:32N 44°44' E 037°47'3 2.8
2016-May-26 19:33N 44°42' E 037°49'7 7.2
2016-May-26 18:33N 44°34' E 037°48'4 4.4
2016-May-26 17:33N 44°33' E 037°42'0 0.1
2016-May-26 16:33N 44°33' E 037°42'0 0.3
2016-May-26 15:33N 44°32' E 037°42'1 0.5
2016-May-26 14:33N 44°32' E 037°43'1 0.6
2016-May-26 13:33N 44°31' E 037°43'1 0.7
2016-May-26 12:33N 44°31' E 037°44'1 0.7
2016-May-26 11:34N 44°30' E 037°45'1 0.7
2016-May-26 10:33N 44°30' E 037°45'1 0.7
2016-May-26 09:33N 44°29' E 037°46'1 0.7
2016-May-26 08:33N 44°29' E 037°47'1 0.8
2016-May-26 07:33N 44°28' E 037°47'1 0.9
2016-May-26 06:33N 44°27' E 037°47'1 0.9
2016-May-26 05:33N 44°26' E 037°47'1 0.7
2016-May-26 04:33N 44°26' E 037°47'1 0.7
2016-May-26 03:33N 44°25' E 037°47'1 0.5
2016-May-26 02:33N 44°24' E 037°46'5 5.4
2016-May-26 01:33N 44°29' E 037°50'4 4.1
2016-May-26 00:33N 44°32' E 037°54'4 4.0
2016-May-25 23:34N 44°30' E 037°49'1211.4
2016-May-25 22:30N 44°22' E 037°37'43110.0
2016-May-24 03:33N 40°59' E 028°60'3 0.6
2016-May-23 21:33N 40°58' E 028°55'9 8.7
2016-May-23 20:33N 40°51' E 029°03'6 5.3
2016-May-23 19:28N 40°53' E 029°10'0 0.0
2016-May-23 18:28N 40°53' E 029°10'0 0.0
2016-May-23 17:32N 40°53' E 029°10'0 0.0
2016-May-23 16:32N 40°53' E 029°10'0 0.0
2016-May-23 15:32N 40°53' E 029°10'0 0.0
2016-May-23 14:32N 40°53' E 029°10'0 0.0
2016-May-23 13:20N 40°53' E 029°10'0 0.0
2016-May-23 12:32N 40°53' E 029°10'0 0.0
2016-May-23 11:32N 40°53' E 029°10'0 0.0
2016-May-23 10:32N 40°53' E 029°10'0 0.0
2016-May-23 09:26N 40°53' E 029°10'0 0.0
2016-May-23 08:32N 40°53' E 029°10'0 0.0
2016-May-23 07:32N 40°53' E 029°10'0 0.0
2016-May-23 06:26N 40°53' E 029°10'0 0.0
2016-May-23 05:32N 40°53' E 029°10'0 0.0
2016-May-23 04:32N 40°53' E 029°10'0 0.0
2016-May-23 03:32N 40°53' E 029°10'0 0.0
2016-May-23 02:32N 40°53' E 029°10'0 0.0
2016-May-23 01:32N 40°53' E 029°10'0 0.0
2016-May-23 00:32N 40°53' E 029°10'0 0.0
2016-May-22 23:32N 40°53' E 029°10'0 0.0
2016-May-22 22:32N 40°53' E 029°10'0 0.0
2016-May-22 21:26N 40°53' E 029°10'0 0.0
2016-May-22 20:32N 40°53' E 029°10'0 0.0
2016-May-22 19:32N 40°53' E 029°10'0 0.0
2016-May-22 18:32N 40°53' E 029°10'0 0.0
2016-May-22 17:32N 40°53' E 029°10'0 0.0
2016-May-22 16:26N 40°53' E 029°10'0 0.0
2016-May-22 15:14N 40°53' E 029°10'0 0.1
2016-May-22 14:32N 40°53' E 029°10'0 0.0
2016-May-22 13:32N 40°53' E 029°10'0 0.0
2016-May-22 12:25N 40°53' E 029°10'0 0.0
2016-May-22 11:31N 40°53' E 029°10'0 0.0
2016-May-22 10:31N 40°53' E 029°10'0 0.0
2016-May-22 09:19N 40°53' E 029°10'0 0.0
2016-May-22 08:31N 40°53' E 029°10'0 0.0
2016-May-22 07:31N 40°53' E 029°10'0 0.0
2016-May-22 06:31N 40°53' E 029°10'0 0.0
2016-May-22 05:13N 40°53' E 029°10'0 0.1
2016-May-22 04:31N 40°53' E 029°10'0 0.0
2016-May-22 03:25N 40°53' E 029°10'0 0.0
2016-May-22 02:31N 40°53' E 029°10'0 0.0
2016-May-22 01:19N 40°53' E 029°10'0 0.0
2016-May-22 00:31N 40°53' E 029°10'0 0.0
2016-May-21 23:31N 40°53' E 029°10'0 0.0
2016-May-21 22:25N 40°53' E 029°10'0 0.0
2016-May-21 21:31N 40°53' E 029°10'3 3.2
2016-May-21 20:33N 40°50' E 029°11'10 9.9
2016-May-21 19:33N 40°45' E 029°23'10 9.7
2016-May-21 18:32N 40°46' E 029°36'0 0.1
2016-May-21 14:22N 40°47' E 029°36'0 0.0
2016-May-21 13:10N 40°47' E 029°36'0 0.0
2016-May-21 12:28N 40°47' E 029°36'0 0.0
2016-May-21 04:28N 40°47' E 029°36'0 0.0
2016-May-20 06:28N 40°47' E 029°36'0 0.0
2016-May-20 03:33N 40°47' E 029°36'0 0.0
2016-May-20 02:21N 40°47' E 029°36'0 0.0
2016-May-20 01:15N 40°47' E 029°36'0 0.0
2016-May-20 00:27N 40°47' E 029°36'0 0.0
2016-May-19 23:33N 40°47' E 029°36'0 0.0
2016-May-19 22:21N 40°47' E 029°36'0 0.0
2016-May-19 21:33N 40°47' E 029°36'0 0.0
2016-May-19 20:33N 40°47' E 029°36'0 0.0
2016-May-19 18:32N 40°47' E 029°36'6 5.1
2016-May-19 17:24N 40°45' E 029°29'7 8.2
2016-May-19 16:33N 40°44' E 029°20'1210.9
2016-May-19 15:30N 40°48' E 029°05'1010.4
2016-May-19 14:32N 40°56' E 028°56'  
Track history (hours):
 
Tides and Currents Weather Stations Pressure Air Temp Water Temp Dewpoint Dewpoint Depression Visibility Wind Speed Wind Dir Waves Ship Positions

Salacak

Last reported at 2016-May-29 03:34 UTC. Time now 2016-May-29 03:53 UTC.
Position N 44°44' E 037°47'.

Length 126 m; draft 8.8 m.

Type: Cargo ship. MMSI: 373532000.

Date/timePositionNaut miles runAvg speedWind from/ knotsBaromVisibWave heightAir tempDewpointWater temp
2016-May-29 03:34N 44°44' E 037°47'0 0.0
2016-May-29 02:33N 44°44' E 037°47'0 0.0
2016-May-29 01:33N 44°44' E 037°47'0 0.0
2016-May-29 00:33N 44°44' E 037°47'0 0.0
2016-May-28 23:33N 44°44' E 037°47'0 0.0
2016-May-28 22:33N 44°44' E 037°47'0 0.0
2016-May-28 21:27N 44°44' E 037°47'0 0.0
2016-May-28 20:30N 44°44' E 037°47'0 0.0
2016-May-28 19:33N 44°44' E 037°47'0 0.0
2016-May-28 18:30N 44°44' E 037°47'0 0.0
2016-May-28 17:33N 44°44' E 037°47'0 0.0
2016-May-28 16:33N 44°44' E 037°47'0 0.0
2016-May-28 15:27N 44°44' E 037°47'0 0.0
2016-May-28 14:33N 44°44' E 037°47'0 0.0
2016-May-28 13:33N 44°44' E 037°47'0 0.0
2016-May-28 12:33N 44°44' E 037°47'0 0.0
2016-May-28 11:33N 44°44' E 037°47'0 0.0
2016-May-28 10:33N 44°44' E 037°47'0 0.0
2016-May-28 09:33N 44°44' E 037°47'0 0.0
2016-May-28 08:30N 44°44' E 037°47'0 0.0
2016-May-28 07:33N 44°44' E 037°47'0 0.0
2016-May-28 06:33N 44°44' E 037°47'0 0.0
2016-May-28 05:33N 44°44' E 037°47'0 0.0
2016-May-28 04:33N 44°44' E 037°47'0 0.0
2016-May-28 03:33N 44°44' E 037°47'0 0.0
2016-May-28 02:33N 44°44' E 037°47'0 0.0
2016-May-28 01:33N 44°44' E 037°47'0 0.0
2016-May-28 00:33N 44°44' E 037°47'0 0.0
2016-May-27 23:33N 44°44' E 037°47'0 0.0
2016-May-27 22:30N 44°44' E 037°47'0 0.0
2016-May-27 21:33N 44°44' E 037°47'0 0.0
2016-May-27 20:33N 44°44' E 037°47'0 0.0
2016-May-27 19:33N 44°44' E 037°47'0 0.0
2016-May-27 18:33N 44°44' E 037°47'0 0.0
2016-May-27 17:32N 44°44' E 037°47'0 0.0
2016-May-27 16:32N 44°44' E 037°47'0 0.0
2016-May-27 15:32N 44°44' E 037°47'0 0.0
2016-May-27 14:32N 44°44' E 037°47'0 0.0
2016-May-27 13:32N 44°44' E 037°47'0 0.0
2016-May-27 12:32N 44°44' E 037°47'0 0.0
2016-May-27 11:32N 44°44' E 037°47'0 0.0
2016-May-27 10:32N 44°44' E 037°47'0 0.0
2016-May-27 09:32N 44°44' E 037°47'0 0.0
2016-May-27 08:32N 44°44' E 037°47'0 0.0
2016-May-27 07:32N 44°44' E 037°47'0 0.0
2016-May-27 06:32N 44°44' E 037°47'0 0.0
2016-May-27 05:32N 44°44' E 037°47'0 0.0
2016-May-27 04:32N 44°44' E 037°47'0 0.0
2016-May-27 03:32N 44°44' E 037°47'0 0.0
2016-May-27 02:32N 44°44' E 037°47'0 0.0
2016-May-27 01:32N 44°44' E 037°47'0 0.0
2016-May-27 00:32N 44°44' E 037°47'0 0.0
2016-May-26 23:32N 44°44' E 037°47'0 0.0
2016-May-26 22:32N 44°44' E 037°47'0 0.0
2016-May-26 21:32N 44°44' E 037°47'0 0.0
2016-May-26 20:32N 44°44' E 037°47'3 2.8
2016-May-26 19:33N 44°42' E 037°49'7 7.2
2016-May-26 18:33N 44°34' E 037°48'4 4.4
2016-May-26 17:33N 44°33' E 037°42'0 0.1
2016-May-26 16:33N 44°33' E 037°42'0 0.3
2016-May-26 15:33N 44°32' E 037°42'1 0.5
2016-May-26 14:33N 44°32' E 037°43'1 0.6
2016-May-26 13:33N 44°31' E 037°43'1 0.7
2016-May-26 12:33N 44°31' E 037°44'1 0.7
2016-May-26 11:34N 44°30' E 037°45'1 0.7
2016-May-26 10:33N 44°30' E 037°45'1 0.7
2016-May-26 09:33N 44°29' E 037°46'1 0.7
2016-May-26 08:33N 44°29' E 037°47'1 0.8
2016-May-26 07:33N 44°28' E 037°47'1 0.9
2016-May-26 06:33N 44°27' E 037°47'1 0.9
2016-May-26 05:33N 44°26' E 037°47'1 0.7
2016-May-26 04:33N 44°26' E 037°47'1 0.7
2016-May-26 03:33N 44°25' E 037°47'1 0.5
2016-May-26 02:33N 44°24' E 037°46'5 5.4
2016-May-26 01:33N 44°29' E 037°50'4 4.1
2016-May-26 00:33N 44°32' E 037°54'4 4.0
2016-May-25 23:34N 44°30' E 037°49'1211.4
2016-May-25 22:30N 44°22' E 037°37'43110.0
2016-May-24 03:33N 40°59' E 028°60'3 0.6
2016-May-23 21:33N 40°58' E 028°55'9 8.7
2016-May-23 20:33N 40°51' E 029°03'6 5.3
2016-May-23 19:28N 40°53' E 029°10'0 0.0
2016-May-23 18:28N 40°53' E 029°10'0 0.0
2016-May-23 17:32N 40°53' E 029°10'0 0.0
2016-May-23 16:32N 40°53' E 029°10'0 0.0
2016-May-23 15:32N 40°53' E 029°10'0 0.0
2016-May-23 14:32N 40°53' E 029°10'0 0.0
2016-May-23 13:20N 40°53' E 029°10'0 0.0
2016-May-23 12:32N 40°53' E 029°10'0 0.0
2016-May-23 11:32N 40°53' E 029°10'0 0.0
2016-May-23 10:32N 40°53' E 029°10'0 0.0
2016-May-23 09:26N 40°53' E 029°10'0 0.0
2016-May-23 08:32N 40°53' E 029°10'0 0.0
2016-May-23 07:32N 40°53' E 029°10'0 0.0
2016-May-23 06:26N 40°53' E 029°10'0 0.0
2016-May-23 05:32N 40°53' E 029°10'0 0.0
2016-May-23 04:32N 40°53' E 029°10'0 0.0
2016-May-23 03:32N 40°53' E 029°10'0 0.0
2016-May-23 02:32N 40°53' E 029°10'0 0.0
2016-May-23 01:32N 40°53' E 029°10'0 0.0
2016-May-23 00:32N 40°53' E 029°10'0 0.0
2016-May-22 23:32N 40°53' E 029°10'0 0.0
2016-May-22 22:32N 40°53' E 029°10'0 0.0
2016-May-22 21:26N 40°53' E 029°10'0 0.0
2016-May-22 20:32N 40°53' E 029°10'0 0.0
2016-May-22 19:32N 40°53' E 029°10'0 0.0
2016-May-22 18:32N 40°53' E 029°10'0 0.0
2016-May-22 17:32N 40°53' E 029°10'0 0.0
2016-May-22 16:26N 40°53' E 029°10'0 0.0
2016-May-22 15:14N 40°53' E 029°10'0 0.1
2016-May-22 14:32N 40°53' E 029°10'0 0.0
2016-May-22 13:32N 40°53' E 029°10'0 0.0
2016-May-22 12:25N 40°53' E 029°10'0 0.0
2016-May-22 11:31N 40°53' E 029°10'0 0.0
2016-May-22 10:31N 40°53' E 029°10'0 0.0
2016-May-22 09:19N 40°53' E 029°10'0 0.0
2016-May-22 08:31N 40°53' E 029°10'0 0.0
2016-May-22 07:31N 40°53' E 029°10'0 0.0
2016-May-22 06:31N 40°53' E 029°10'0 0.0
2016-May-22 05:13N 40°53' E 029°10'0 0.1
2016-May-22 04:31N 40°53' E 029°10'0 0.0
2016-May-22 03:25N 40°53' E 029°10'0 0.0
2016-May-22 02:31N 40°53' E 029°10'0 0.0
2016-May-22 01:19N 40°53' E 029°10'0 0.0
2016-May-22 00:31N 40°53' E 029°10'0 0.0
2016-May-21 23:31N 40°53' E 029°10'0 0.0
2016-May-21 22:25N 40°53' E 029°10'0 0.0
2016-May-21 21:31N 40°53' E 029°10'3 3.2
2016-May-21 20:33N 40°50' E 029°11'10 9.9
2016-May-21 19:33N 40°45' E 029°23'10 9.7
2016-May-21 18:32N 40°46' E 029°36'0 0.1
2016-May-21 14:22N 40°47' E 029°36'0 0.0
2016-May-21 13:10N 40°47' E 029°36'0 0.0
2016-May-21 12:28N 40°47' E 029°36'0 0.0
2016-May-21 04:28N 40°47' E 029°36'0 0.0
2016-May-20 06:28N 40°47' E 029°36'0 0.0
2016-May-20 03:33N 40°47' E 029°36'0 0.0
2016-May-20 02:21N 40°47' E 029°36'0 0.0
2016-May-20 01:15N 40°47' E 029°36'0 0.0
2016-May-20 00:27N 40°47' E 029°36'0 0.0
2016-May-19 23:33N 40°47' E 029°36'0 0.0
2016-May-19 22:21N 40°47' E 029°36'0 0.0
2016-May-19 21:33N 40°47' E 029°36'0 0.0
2016-May-19 20:33N 40°47' E 029°36'0 0.0
2016-May-19 18:32N 40°47' E 029°36'6 5.1
2016-May-19 17:24N 40°45' E 029°29'7 8.2
2016-May-19 16:33N 40°44' E 029°20'1210.9
2016-May-19 15:30N 40°48' E 029°05'1010.4
2016-May-19 14:32N 40°56' E 028°56'  

Dump ship's entire track history